sensor_id;sensor_type;location;lat;lon;timestamp;temperature;humidity
27567;DHT22;15006;48.584;9.186;2022-12-07T00:01:42;1.10;99.90
27567;DHT22;15006;48.584;9.186;2022-12-07T00:04:15;1.10;99.90
27567;DHT22;15006;48.584;9.186;2022-12-07T00:06:46;1.10;99.90
27567;DHT22;15006;48.584;9.186;2022-12-07T00:09:18;1.10;99.90
27567;DHT22;15006;48.584;9.186;2022-12-07T00:11:49;1.10;99.90
27567;DHT22;15006;48.584;9.186;2022-12-07T00:14:17;1.10;99.90
27567;DHT22;15006;48.584;9.186;2022-12-07T00:16:46;1.20;99.90
27567;DHT22;15006;48.584;9.186;2022-12-07T00:19:18;1.10;99.90
27567;DHT22;15006;48.584;9.186;2022-12-07T00:21:47;1.20;99.90
27567;DHT22;15006;48.584;9.186;2022-12-07T00:24:15;1.10;99.90
27567;DHT22;15006;48.584;9.186;2022-12-07T00:26:42;1.20;99.90
27567;DHT22;15006;48.584;9.186;2022-12-07T00:29:21;1.10;99.90
27567;DHT22;15006;48.584;9.186;2022-12-07T00:31:49;1.10;99.90
27567;DHT22;15006;48.584;9.186;2022-12-07T00:34:20;1.20;99.90
27567;DHT22;15006;48.584;9.186;2022-12-07T00:36:48;1.20;99.90
27567;DHT22;15006;48.584;9.186;2022-12-07T00:39:16;1.10;99.90
27567;DHT22;15006;48.584;9.186;2022-12-07T00:41:44;1.10;99.90
27567;DHT22;15006;48.584;9.186;2022-12-07T00:44:12;1.10;99.90
27567;DHT22;15006;48.584;9.186;2022-12-07T00:46:40;1.10;99.90
27567;DHT22;15006;48.584;9.186;2022-12-07T00:49:06;1.10;99.90
27567;DHT22;15006;48.584;9.186;2022-12-07T00:51:32;1.10;99.90
27567;DHT22;15006;48.584;9.186;2022-12-07T00:53:58;1.10;99.90
27567;DHT22;15006;48.584;9.186;2022-12-07T00:56:26;1.10;99.90
27567;DHT22;15006;48.584;9.186;2022-12-07T00:58:56;1.00;99.90
27567;DHT22;15006;48.584;9.186;2022-12-07T01:01:24;1.00;99.90
27567;DHT22;15006;48.584;9.186;2022-12-07T01:03:51;1.00;99.90
27567;DHT22;15006;48.584;9.186;2022-12-07T01:06:19;1.00;99.90
27567;DHT22;15006;48.584;9.186;2022-12-07T01:08:45;1.00;99.90
27567;DHT22;15006;48.584;9.186;2022-12-07T01:11:13;1.00;99.90
27567;DHT22;15006;48.584;9.186;2022-12-07T01:13:41;0.90;99.90
27567;DHT22;15006;48.584;9.186;2022-12-07T01:16:08;1.00;99.90
27567;DHT22;15006;48.584;9.186;2022-12-07T01:18:36;1.00;99.90
27567;DHT22;15006;48.584;9.186;2022-12-07T01:23:40;1.00;99.90
27567;DHT22;15006;48.584;9.186;2022-12-07T01:26:09;1.00;99.90
27567;DHT22;15006;48.584;9.186;2022-12-07T01:28:37;1.00;99.90
27567;DHT22;15006;48.584;9.186;2022-12-07T01:31:05;1.00;99.90
27567;DHT22;15006;48.584;9.186;2022-12-07T01:33:37;1.00;99.90
27567;DHT22;15006;48.584;9.186;2022-12-07T01:36:15;1.00;99.90
27567;DHT22;15006;48.584;9.186;2022-12-07T01:38:45;1.10;99.90
27567;DHT22;15006;48.584;9.186;2022-12-07T01:41:13;1.10;99.90
27567;DHT22;15006;48.584;9.186;2022-12-07T01:46:47;1.10;99.90
27567;DHT22;15006;48.584;9.186;2022-12-07T01:54:32;1.10;99.90
27567;DHT22;15006;48.584;9.186;2022-12-07T01:56:59;1.10;99.90
27567;DHT22;15006;48.584;9.186;2022-12-07T01:59:25;1.10;99.90
27567;DHT22;15006;48.584;9.186;2022-12-07T02:01:53;1.10;99.90
27567;DHT22;15006;48.584;9.186;2022-12-07T02:04:22;1.20;99.90
27567;DHT22;15006;48.584;9.186;2022-12-07T02:06:50;1.20;99.90
27567;DHT22;15006;48.584;9.186;2022-12-07T02:09:17;1.20;99.90
27567;DHT22;15006;48.584;9.186;2022-12-07T02:11:43;1.20;99.90
27567;DHT22;15006;48.584;9.186;2022-12-07T02:14:09;1.20;99.90
27567;DHT22;15006;48.584;9.186;2022-12-07T02:16:59;1.20;99.90
27567;DHT22;15006;48.584;9.186;2022-12-07T02:20:29;1.20;99.90
27567;DHT22;15006;48.584;9.186;2022-12-07T02:29:20;1.30;99.90
27567;DHT22;15006;48.584;9.186;2022-12-07T02:32:11;1.30;99.90
27567;DHT22;15006;48.584;9.186;2022-12-07T02:34:58;1.30;99.90
27567;DHT22;15006;48.584;9.186;2022-12-07T02:40:48;1.20;99.90
27567;DHT22;15006;48.584;9.186;2022-12-07T02:43:38;1.20;99.90
27567;DHT22;15006;48.584;9.186;2022-12-07T02:46:12;1.20;99.90
27567;DHT22;15006;48.584;9.186;2022-12-07T02:48:41;1.10;99.90
27567;DHT22;15006;48.584;9.186;2022-12-07T02:51:09;1.10;99.90
27567;DHT22;15006;48.584;9.186;2022-12-07T02:53:40;1.10;99.90
27567;DHT22;15006;48.584;9.186;2022-12-07T03:04:53;1.10;99.90
27567;DHT22;15006;48.584;9.186;2022-12-07T03:07:30;1.00;99.90
27567;DHT22;15006;48.584;9.186;2022-12-07T03:13:13;0.90;99.90
27567;DHT22;15006;48.584;9.186;2022-12-07T03:16:10;0.90;99.90
27567;DHT22;15006;48.584;9.186;2022-12-07T03:18:43;0.90;99.90
27567;DHT22;15006;48.584;9.186;2022-12-07T03:21:28;0.80;99.90
27567;DHT22;15006;48.584;9.186;2022-12-07T03:24:00;0.80;99.90
27567;DHT22;15006;48.584;9.186;2022-12-07T03:26:41;0.80;99.90
27567;DHT22;15006;48.584;9.186;2022-12-07T03:29:32;0.70;99.90
27567;DHT22;15006;48.584;9.186;2022-12-07T03:32:08;0.70;99.90
27567;DHT22;15006;48.584;9.186;2022-12-07T03:35:25;0.70;99.90
27567;DHT22;15006;48.584;9.186;2022-12-07T03:38:00;0.60;99.90
27567;DHT22;15006;48.584;9.186;2022-12-07T03:40:50;0.60;99.90
27567;DHT22;15006;48.584;9.186;2022-12-07T03:43:21;0.60;99.90
27567;DHT22;15006;48.584;9.186;2022-12-07T03:49:56;0.50;99.90
27567;DHT22;15006;48.584;9.186;2022-12-07T03:52:40;0.50;99.90
27567;DHT22;15006;48.584;9.186;2022-12-07T03:55:16;0.50;99.90
27567;DHT22;15006;48.584;9.186;2022-12-07T03:57:47;0.40;99.90
27567;DHT22;15006;48.584;9.186;2022-12-07T04:00:15;0.50;99.90
27567;DHT22;15006;48.584;9.186;2022-12-07T04:02:42;0.40;99.90
27567;DHT22;15006;48.584;9.186;2022-12-07T04:05:10;0.40;99.90
27567;DHT22;15006;48.584;9.186;2022-12-07T04:07:36;0.30;99.90
27567;DHT22;15006;48.584;9.186;2022-12-07T04:10:03;0.30;99.90
27567;DHT22;15006;48.584;9.186;2022-12-07T04:12:30;0.30;99.90
27567;DHT22;15006;48.584;9.186;2022-12-07T04:14:56;0.30;99.90
27567;DHT22;15006;48.584;9.186;2022-12-07T04:17:22;0.30;99.90
27567;DHT22;15006;48.584;9.186;2022-12-07T04:19:48;0.30;99.90
27567;DHT22;15006;48.584;9.186;2022-12-07T04:22:14;0.20;99.90
27567;DHT22;15006;48.584;9.186;2022-12-07T04:24:40;0.20;99.90
27567;DHT22;15006;48.584;9.186;2022-12-07T04:27:06;0.20;99.90
27567;DHT22;15006;48.584;9.186;2022-12-07T04:29:32;0.20;99.90
27567;DHT22;15006;48.584;9.186;2022-12-07T04:31:58;0.20;99.90
27567;DHT22;15006;48.584;9.186;2022-12-07T04:34:24;0.20;99.90
27567;DHT22;15006;48.584;9.186;2022-12-07T04:36:50;0.20;99.90
27567;DHT22;15006;48.584;9.186;2022-12-07T04:39:34;0.10;99.90
27567;DHT22;15006;48.584;9.186;2022-12-07T04:42:01;0.10;99.90
27567;DHT22;15006;48.584;9.186;2022-12-07T04:44:28;0.10;99.90
27567;DHT22;15006;48.584;9.186;2022-12-07T04:46:55;0.10;99.90
27567;DHT22;15006;48.584;9.186;2022-12-07T04:49:23;0.10;99.90
27567;DHT22;15006;48.584;9.186;2022-12-07T04:51:50;0.10;99.90
27567;DHT22;15006;48.584;9.186;2022-12-07T04:54:17;0.10;99.90
27567;DHT22;15006;48.584;9.186;2022-12-07T04:56:43;0.00;99.90
27567;DHT22;15006;48.584;9.186;2022-12-07T04:59:11;0.00;99.90
27567;DHT22;15006;48.584;9.186;2022-12-07T05:01:38;0.00;99.90
27567;DHT22;15006;48.584;9.186;2022-12-07T05:04:04;0.00;99.90
27567;DHT22;15006;48.584;9.186;2022-12-07T05:06:31;0.00;99.90
27567;DHT22;15006;48.584;9.186;2022-12-07T05:08:57;0.00;99.90
27567;DHT22;15006;48.584;9.186;2022-12-07T05:11:23;-0.10;99.90
27567;DHT22;15006;48.584;9.186;2022-12-07T05:14:13;-0.10;99.90
27567;DHT22;15006;48.584;9.186;2022-12-07T05:16:42;-0.10;99.90
27567;DHT22;15006;48.584;9.186;2022-12-07T05:19:10;-0.20;99.90
27567;DHT22;15006;48.584;9.186;2022-12-07T05:21:36;-0.30;99.90
27567;DHT22;15006;48.584;9.186;2022-12-07T05:24:03;-0.40;99.90
27567;DHT22;15006;48.584;9.186;2022-12-07T05:26:30;-0.50;99.90
27567;DHT22;15006;48.584;9.186;2022-12-07T05:28:57;-0.50;99.90
27567;DHT22;15006;48.584;9.186;2022-12-07T05:31:25;-0.60;99.90
27567;DHT22;15006;48.584;9.186;2022-12-07T05:33:52;-0.70;99.90
27567;DHT22;15006;48.584;9.186;2022-12-07T05:36:18;-0.80;99.90
27567;DHT22;15006;48.584;9.186;2022-12-07T05:38:44;-0.90;99.90
27567;DHT22;15006;48.584;9.186;2022-12-07T05:41:14;-0.90;99.90
27567;DHT22;15006;48.584;9.186;2022-12-07T05:44:00;-1.00;99.90
27567;DHT22;15006;48.584;9.186;2022-12-07T05:46:26;-1.20;99.90
27567;DHT22;15006;48.584;9.186;2022-12-07T05:48:52;-1.20;99.90
27567;DHT22;15006;48.584;9.186;2022-12-07T05:51:19;-1.30;99.90
27567;DHT22;15006;48.584;9.186;2022-12-07T05:53:45;-1.30;99.90
27567;DHT22;15006;48.584;9.186;2022-12-07T05:56:11;-1.30;99.90
27567;DHT22;15006;48.584;9.186;2022-12-07T05:58:37;-1.30;99.90
27567;DHT22;15006;48.584;9.186;2022-12-07T06:01:22;-1.30;99.90
27567;DHT22;15006;48.584;9.186;2022-12-07T06:03:48;-1.30;99.90
27567;DHT22;15006;48.584;9.186;2022-12-07T06:06:14;-1.30;99.90
27567;DHT22;15006;48.584;9.186;2022-12-07T06:08:39;-1.30;99.90
27567;DHT22;15006;48.584;9.186;2022-12-07T06:11:05;-1.30;99.90
27567;DHT22;15006;48.584;9.186;2022-12-07T06:13:50;-1.40;99.90
27567;DHT22;15006;48.584;9.186;2022-12-07T06:16:16;-1.40;99.90
27567;DHT22;15006;48.584;9.186;2022-12-07T06:18:42;-1.50;99.90
27567;DHT22;15006;48.584;9.186;2022-12-07T06:21:08;-1.50;99.90
27567;DHT22;15006;48.584;9.186;2022-12-07T06:23:34;-1.50;99.90
27567;DHT22;15006;48.584;9.186;2022-12-07T06:26:00;-1.50;99.90
27567;DHT22;15006;48.584;9.186;2022-12-07T06:28:26;-1.60;99.90
27567;DHT22;15006;48.584;9.186;2022-12-07T06:30:59;-1.60;99.90
27567;DHT22;15006;48.584;9.186;2022-12-07T06:33:26;-1.60;99.90
27567;DHT22;15006;48.584;9.186;2022-12-07T06:35:52;-1.70;99.90
27567;DHT22;15006;48.584;9.186;2022-12-07T06:38:19;-1.70;99.90
27567;DHT22;15006;48.584;9.186;2022-12-07T06:40:45;-1.80;99.90
27567;DHT22;15006;48.584;9.186;2022-12-07T06:43:11;-1.90;99.90
27567;DHT22;15006;48.584;9.186;2022-12-07T06:45:37;-1.90;99.90
27567;DHT22;15006;48.584;9.186;2022-12-07T06:48:03;-2.00;99.90
27567;DHT22;15006;48.584;9.186;2022-12-07T06:50:29;-2.00;99.90
27567;DHT22;15006;48.584;9.186;2022-12-07T06:52:55;-2.10;99.90
27567;DHT22;15006;48.584;9.186;2022-12-07T06:55:21;-2.10;99.90
27567;DHT22;15006;48.584;9.186;2022-12-07T06:57:47;-2.00;99.90
27567;DHT22;15006;48.584;9.186;2022-12-07T07:00:13;-2.00;99.90
27567;DHT22;15006;48.584;9.186;2022-12-07T07:02:39;-2.00;99.90
27567;DHT22;15006;48.584;9.186;2022-12-07T07:05:05;-2.00;99.90
27567;DHT22;15006;48.584;9.186;2022-12-07T07:07:32;-1.90;99.90
27567;DHT22;15006;48.584;9.186;2022-12-07T07:09:57;-1.90;99.90
27567;DHT22;15006;48.584;9.186;2022-12-07T07:12:23;-1.90;99.90
27567;DHT22;15006;48.584;9.186;2022-12-07T07:14:49;-1.80;99.90
27567;DHT22;15006;48.584;9.186;2022-12-07T07:17:15;-1.80;99.90
27567;DHT22;15006;48.584;9.186;2022-12-07T07:19:41;-1.70;99.90
27567;DHT22;15006;48.584;9.186;2022-12-07T07:22:07;-1.70;99.90
27567;DHT22;15006;48.584;9.186;2022-12-07T07:24:33;-1.60;99.90
27567;DHT22;15006;48.584;9.186;2022-12-07T07:26:59;-1.60;99.90
27567;DHT22;15006;48.584;9.186;2022-12-07T07:29:25;-1.60;99.90
27567;DHT22;15006;48.584;9.186;2022-12-07T07:31:51;-1.50;99.90
27567;DHT22;15006;48.584;9.186;2022-12-07T07:34:17;-1.40;99.90
27567;DHT22;15006;48.584;9.186;2022-12-07T07:36:43;-1.40;99.90
27567;DHT22;15006;48.584;9.186;2022-12-07T07:39:10;-1.40;99.90
27567;DHT22;15006;48.584;9.186;2022-12-07T07:41:38;-1.40;99.90
27567;DHT22;15006;48.584;9.186;2022-12-07T07:44:04;-1.30;99.90
27567;DHT22;15006;48.584;9.186;2022-12-07T07:46:30;-1.30;99.90
27567;DHT22;15006;48.584;9.186;2022-12-07T07:48:58;-1.20;99.90
27567;DHT22;15006;48.584;9.186;2022-12-07T07:51:24;-1.20;99.90
27567;DHT22;15006;48.584;9.186;2022-12-07T07:53:50;-1.20;99.90
27567;DHT22;15006;48.584;9.186;2022-12-07T07:56:16;-1.10;99.90
27567;DHT22;15006;48.584;9.186;2022-12-07T07:58:42;-1.10;99.90
27567;DHT22;15006;48.584;9.186;2022-12-07T08:01:09;-1.00;99.90
27567;DHT22;15006;48.584;9.186;2022-12-07T08:03:35;-0.90;99.90
27567;DHT22;15006;48.584;9.186;2022-12-07T08:06:03;-0.90;99.90
27567;DHT22;15006;48.584;9.186;2022-12-07T08:08:29;-0.80;99.90
27567;DHT22;15006;48.584;9.186;2022-12-07T08:10:55;-0.70;99.90
27567;DHT22;15006;48.584;9.186;2022-12-07T08:13:21;-0.70;99.90
27567;DHT22;15006;48.584;9.186;2022-12-07T08:15:48;-0.60;99.90
27567;DHT22;15006;48.584;9.186;2022-12-07T08:18:14;-0.50;99.90
27567;DHT22;15006;48.584;9.186;2022-12-07T08:20:41;-0.40;99.90
27567;DHT22;15006;48.584;9.186;2022-12-07T08:23:08;-0.40;99.90
27567;DHT22;15006;48.584;9.186;2022-12-07T08:25:36;-0.30;99.90
27567;DHT22;15006;48.584;9.186;2022-12-07T08:28:02;-0.30;99.90
27567;DHT22;15006;48.584;9.186;2022-12-07T08:30:29;-0.20;99.90
27567;DHT22;15006;48.584;9.186;2022-12-07T08:32:55;-0.20;99.90
27567;DHT22;15006;48.584;9.186;2022-12-07T08:35:22;-0.20;99.90
27567;DHT22;15006;48.584;9.186;2022-12-07T08:37:48;-0.10;99.90
27567;DHT22;15006;48.584;9.186;2022-12-07T08:40:14;-0.10;99.90
27567;DHT22;15006;48.584;9.186;2022-12-07T08:42:42;0.00;99.90
27567;DHT22;15006;48.584;9.186;2022-12-07T08:45:14;0.00;99.90
27567;DHT22;15006;48.584;9.186;2022-12-07T08:47:44;0.00;99.90
27567;DHT22;15006;48.584;9.186;2022-12-07T08:50:14;0.10;99.90
27567;DHT22;15006;48.584;9.186;2022-12-07T08:52:41;0.10;99.90
27567;DHT22;15006;48.584;9.186;2022-12-07T08:55:09;0.10;99.90
27567;DHT22;15006;48.584;9.186;2022-12-07T08:57:37;0.20;99.90
27567;DHT22;15006;48.584;9.186;2022-12-07T09:00:04;0.20;99.90
27567;DHT22;15006;48.584;9.186;2022-12-07T09:02:32;0.30;99.90
27567;DHT22;15006;48.584;9.186;2022-12-07T09:04:58;0.40;99.90
27567;DHT22;15006;48.584;9.186;2022-12-07T09:07:24;0.40;99.90
27567;DHT22;15006;48.584;9.186;2022-12-07T09:09:51;0.40;99.90
27567;DHT22;15006;48.584;9.186;2022-12-07T09:12:17;0.40;99.90
27567;DHT22;15006;48.584;9.186;2022-12-07T09:14:43;0.50;99.90
27567;DHT22;15006;48.584;9.186;2022-12-07T09:17:11;0.50;99.90
27567;DHT22;15006;48.584;9.186;2022-12-07T09:19:38;0.50;99.90
27567;DHT22;15006;48.584;9.186;2022-12-07T09:22:05;0.50;99.90
27567;DHT22;15006;48.584;9.186;2022-12-07T09:24:31;0.50;99.90
27567;DHT22;15006;48.584;9.186;2022-12-07T09:26:58;0.50;99.90
27567;DHT22;15006;48.584;9.186;2022-12-07T09:29:24;0.50;99.90
27567;DHT22;15006;48.584;9.186;2022-12-07T09:31:51;0.60;99.90
27567;DHT22;15006;48.584;9.186;2022-12-07T09:34:18;0.60;99.90
27567;DHT22;15006;48.584;9.186;2022-12-07T09:36:45;0.60;99.90
27567;DHT22;15006;48.584;9.186;2022-12-07T09:39:11;0.60;99.90
27567;DHT22;15006;48.584;9.186;2022-12-07T09:41:39;0.70;99.90
27567;DHT22;15006;48.584;9.186;2022-12-07T09:44:11;0.70;99.90
27567;DHT22;15006;48.584;9.186;2022-12-07T09:46:41;0.70;99.90
27567;DHT22;15006;48.584;9.186;2022-12-07T09:49:14;0.80;99.90
27567;DHT22;15006;48.584;9.186;2022-12-07T09:51:42;0.80;99.90
27567;DHT22;15006;48.584;9.186;2022-12-07T09:54:12;0.90;99.90
27567;DHT22;15006;48.584;9.186;2022-12-07T09:56:40;0.90;99.90
27567;DHT22;15006;48.584;9.186;2022-12-07T09:59:09;1.00;99.90
27567;DHT22;15006;48.584;9.186;2022-12-07T10:01:39;1.00;99.90
27567;DHT22;15006;48.584;9.186;2022-12-07T10:04:15;1.10;99.90
27567;DHT22;15006;48.584;9.186;2022-12-07T10:06:48;1.20;99.90
27567;DHT22;15006;48.584;9.186;2022-12-07T10:09:18;1.20;99.90
27567;DHT22;15006;48.584;9.186;2022-12-07T10:12:11;1.20;99.90
27567;DHT22;15006;48.584;9.186;2022-12-07T10:14:40;1.30;99.90
27567;DHT22;15006;48.584;9.186;2022-12-07T10:17:47;1.40;99.90
27567;DHT22;15006;48.584;9.186;2022-12-07T10:25:28;1.50;98.90
27567;DHT22;15006;48.584;9.186;2022-12-07T10:28:08;1.60;99.90
27567;DHT22;15006;48.584;9.186;2022-12-07T10:30:56;1.60;99.90
27567;DHT22;15006;48.584;9.186;2022-12-07T10:35:59;1.70;99.90
27567;DHT22;15006;48.584;9.186;2022-12-07T10:38:27;1.70;99.90
27567;DHT22;15006;48.584;9.186;2022-12-07T10:41:05;1.70;99.90
27567;DHT22;15006;48.584;9.186;2022-12-07T10:43:32;1.70;97.70
27567;DHT22;15006;48.584;9.186;2022-12-07T10:57:38;1.80;99.50
27567;DHT22;15006;48.584;9.186;2022-12-07T11:00:32;1.80;99.00
27567;DHT22;15006;48.584;9.186;2022-12-07T11:03:19;1.80;97.70
27567;DHT22;15006;48.584;9.186;2022-12-07T11:06:10;1.80;99.00
27567;DHT22;15006;48.584;9.186;2022-12-07T11:14:40;1.90;98.60
27567;DHT22;15006;48.584;9.186;2022-12-07T11:17:27;2.00;97.70
27567;DHT22;15006;48.584;9.186;2022-12-07T11:32:02;2.10;96.00
27567;DHT22;15006;48.584;9.186;2022-12-07T11:37:32;2.10;95.80
27567;DHT22;15006;48.584;9.186;2022-12-07T11:40:03;2.10;97.40
27567;DHT22;15006;48.584;9.186;2022-12-07T11:42:38;2.10;97.60
27567;DHT22;15006;48.584;9.186;2022-12-07T11:45:20;2.10;96.80
27567;DHT22;15006;48.584;9.186;2022-12-07T11:48:19;2.20;95.30
27567;DHT22;15006;48.584;9.186;2022-12-07T11:50:51;2.20;94.90
27567;DHT22;15006;48.584;9.186;2022-12-07T11:56:13;2.20;94.50
27567;DHT22;15006;48.584;9.186;2022-12-07T11:58:56;2.20;95.00
27567;DHT22;15006;48.584;9.186;2022-12-07T12:06:38;2.30;97.20
27567;DHT22;15006;48.584;9.186;2022-12-07T12:09:18;2.30;97.20
27567;DHT22;15006;48.584;9.186;2022-12-07T12:20:58;2.30;95.60
27567;DHT22;15006;48.584;9.186;2022-12-07T12:23:54;2.30;95.30
27567;DHT22;15006;48.584;9.186;2022-12-07T12:26:24;2.30;94.60
27567;DHT22;15006;48.584;9.186;2022-12-07T12:28:54;2.30;97.00
27567;DHT22;15006;48.584;9.186;2022-12-07T12:33:57;2.20;96.70
27567;DHT22;15006;48.584;9.186;2022-12-07T12:49:40;2.30;96.40
27567;DHT22;15006;48.584;9.186;2022-12-07T12:54:36;2.30;96.30
27567;DHT22;15006;48.584;9.186;2022-12-07T12:57:14;2.30;96.20
27567;DHT22;15006;48.584;9.186;2022-12-07T12:59:57;2.30;95.40
27567;DHT22;15006;48.584;9.186;2022-12-07T13:02:36;2.30;94.40
27567;DHT22;15006;48.584;9.186;2022-12-07T13:05:23;2.30;95.50
27567;DHT22;15006;48.584;9.186;2022-12-07T13:07:58;2.30;97.40
27567;DHT22;15006;48.584;9.186;2022-12-07T13:15:48;2.30;96.30
27567;DHT22;15006;48.584;9.186;2022-12-07T13:23:31;2.30;96.30
27567;DHT22;15006;48.584;9.186;2022-12-07T13:29:38;2.30;95.00
27567;DHT22;15006;48.584;9.186;2022-12-07T13:31:56;2.30;97.20
27567;DHT22;15006;48.584;9.186;2022-12-07T13:34:34;2.30;96.90
27567;DHT22;15006;48.584;9.186;2022-12-07T13:37:32;2.30;92.80
27567;DHT22;15006;48.584;9.186;2022-12-07T13:40:00;2.30;95.20
27567;DHT22;15006;48.584;9.186;2022-12-07T13:42:34;2.30;96.80
27567;DHT22;15006;48.584;9.186;2022-12-07T13:45:27;2.30;96.60
27567;DHT22;15006;48.584;9.186;2022-12-07T13:48:32;2.30;95.30
27567;DHT22;15006;48.584;9.186;2022-12-07T13:51:03;2.30;96.60
27567;DHT22;15006;48.584;9.186;2022-12-07T13:53:29;2.40;97.20
27567;DHT22;15006;48.584;9.186;2022-12-07T13:55:57;2.30;97.70
27567;DHT22;15006;48.584;9.186;2022-12-07T13:58:25;2.40;97.60
27567;DHT22;15006;48.584;9.186;2022-12-07T14:00:52;2.40;97.60
27567;DHT22;15006;48.584;9.186;2022-12-07T14:05:45;2.40;97.50
27567;DHT22;15006;48.584;9.186;2022-12-07T14:10:39;2.40;97.50
27567;DHT22;15006;48.584;9.186;2022-12-07T14:16:03;2.30;95.40
27567;DHT22;15006;48.584;9.186;2022-12-07T14:18:37;2.30;96.80
27567;DHT22;15006;48.584;9.186;2022-12-07T14:23:40;2.30;96.30
27567;DHT22;15006;48.584;9.186;2022-12-07T14:26:20;2.30;97.00
27567;DHT22;15006;48.584;9.186;2022-12-07T14:28:47;2.30;95.40
27567;DHT22;15006;48.584;9.186;2022-12-07T14:31:14;2.30;96.70
27567;DHT22;15006;48.584;9.186;2022-12-07T14:33:41;2.20;97.10
27567;DHT22;15006;48.584;9.186;2022-12-07T14:36:12;2.20;97.30
27567;DHT22;15006;48.584;9.186;2022-12-07T14:38:39;2.20;96.50
27567;DHT22;15006;48.584;9.186;2022-12-07T14:41:12;2.20;97.30
27567;DHT22;15006;48.584;9.186;2022-12-07T14:44:12;2.20;96.80
27567;DHT22;15006;48.584;9.186;2022-12-07T14:46:40;2.20;97.00
27567;DHT22;15006;48.584;9.186;2022-12-07T14:49:06;2.10;97.70
27567;DHT22;15006;48.584;9.186;2022-12-07T14:51:33;2.10;98.00
27567;DHT22;15006;48.584;9.186;2022-12-07T14:53:59;2.10;97.80
27567;DHT22;15006;48.584;9.186;2022-12-07T14:56:26;2.10;97.90
27567;DHT22;15006;48.584;9.186;2022-12-07T14:58:53;2.10;97.90
27567;DHT22;15006;48.584;9.186;2022-12-07T15:01:19;2.10;97.90
27567;DHT22;15006;48.584;9.186;2022-12-07T15:03:45;2.10;97.90
27567;DHT22;15006;48.584;9.186;2022-12-07T15:06:15;2.10;97.70
27567;DHT22;15006;48.584;9.186;2022-12-07T15:08:42;2.00;97.30
27567;DHT22;15006;48.584;9.186;2022-12-07T15:11:13;2.00;97.70
27567;DHT22;15006;48.584;9.186;2022-12-07T15:13:40;2.00;97.20
27567;DHT22;15006;48.584;9.186;2022-12-07T15:16:25;2.00;97.50
27567;DHT22;15006;48.584;9.186;2022-12-07T15:18:51;2.00;97.50
27567;DHT22;15006;48.584;9.186;2022-12-07T15:21:17;2.00;97.30
27567;DHT22;15006;48.584;9.186;2022-12-07T15:23:43;2.00;97.40
27567;DHT22;15006;48.584;9.186;2022-12-07T15:26:12;2.00;97.40
27567;DHT22;15006;48.584;9.186;2022-12-07T15:28:40;1.90;97.00
27567;DHT22;15006;48.584;9.186;2022-12-07T15:31:14;2.00;97.60
27567;DHT22;15006;48.584;9.186;2022-12-07T15:33:42;1.90;96.50
27567;DHT22;15006;48.584;9.186;2022-12-07T15:36:18;1.90;97.40
27567;DHT22;15006;48.584;9.186;2022-12-07T15:38:47;1.90;96.70
27567;DHT22;15006;48.584;9.186;2022-12-07T15:41:13;1.90;97.50
27567;DHT22;15006;48.584;9.186;2022-12-07T15:43:39;1.80;97.40
27567;DHT22;15006;48.584;9.186;2022-12-07T15:46:32;1.80;97.30
27567;DHT22;15006;48.584;9.186;2022-12-07T15:49:00;1.80;96.40
27567;DHT22;15006;48.584;9.186;2022-12-07T15:51:27;1.80;97.10
27567;DHT22;15006;48.584;9.186;2022-12-07T15:53:53;1.70;97.20
27567;DHT22;15006;48.584;9.186;2022-12-07T15:56:19;1.70;97.20
27567;DHT22;15006;48.584;9.186;2022-12-07T15:58:46;1.70;97.40
27567;DHT22;15006;48.584;9.186;2022-12-07T16:01:14;1.60;97.50
27567;DHT22;15006;48.584;9.186;2022-12-07T16:03:42;1.60;97.40
27567;DHT22;15006;48.584;9.186;2022-12-07T16:06:08;1.60;97.70
27567;DHT22;15006;48.584;9.186;2022-12-07T16:08:34;1.60;97.90
27567;DHT22;15006;48.584;9.186;2022-12-07T16:11:05;1.60;97.90
27567;DHT22;15006;48.584;9.186;2022-12-07T16:13:32;1.60;97.40
27567;DHT22;15006;48.584;9.186;2022-12-07T16:16:05;1.60;97.80
27567;DHT22;15006;48.584;9.186;2022-12-07T16:18:33;1.50;97.30
27567;DHT22;15006;48.584;9.186;2022-12-07T16:21:00;1.50;97.70
27567;DHT22;15006;48.584;9.186;2022-12-07T16:23:27;1.50;97.70
27567;DHT22;15006;48.584;9.186;2022-12-07T16:25:53;1.50;97.70
27567;DHT22;15006;48.584;9.186;2022-12-07T16:28:19;1.40;97.80
27567;DHT22;15006;48.584;9.186;2022-12-07T16:30:45;1.40;97.90
27567;DHT22;15006;48.584;9.186;2022-12-07T16:33:12;1.40;97.90
27567;DHT22;15006;48.584;9.186;2022-12-07T16:35:39;1.30;97.80
27567;DHT22;15006;48.584;9.186;2022-12-07T16:38:07;1.30;97.70
27567;DHT22;15006;48.584;9.186;2022-12-07T16:40:33;1.20;97.60
27567;DHT22;15006;48.584;9.186;2022-12-07T16:42:59;1.20;97.70
27567;DHT22;15006;48.584;9.186;2022-12-07T16:45:25;1.20;97.80
27567;DHT22;15006;48.584;9.186;2022-12-07T16:47:51;1.10;97.80
27567;DHT22;15006;48.584;9.186;2022-12-07T16:50:17;1.10;97.80
27567;DHT22;15006;48.584;9.186;2022-12-07T16:52:43;1.00;97.80
27567;DHT22;15006;48.584;9.186;2022-12-07T16:55:08;1.00;97.80
27567;DHT22;15006;48.584;9.186;2022-12-07T16:57:34;0.90;97.70
27567;DHT22;15006;48.584;9.186;2022-12-07T17:00:00;0.90;97.70
27567;DHT22;15006;48.584;9.186;2022-12-07T17:02:28;0.80;97.70
27567;DHT22;15006;48.584;9.186;2022-12-07T17:04:54;0.80;97.90
27567;DHT22;15006;48.584;9.186;2022-12-07T17:07:20;0.80;98.00
27567;DHT22;15006;48.584;9.186;2022-12-07T17:09:46;0.70;98.10
27567;DHT22;15006;48.584;9.186;2022-12-07T17:12:12;0.70;98.10
27567;DHT22;15006;48.584;9.186;2022-12-07T17:14:38;0.60;97.90
27567;DHT22;15006;48.584;9.186;2022-12-07T17:17:23;0.60;97.90
27567;DHT22;15006;48.584;9.186;2022-12-07T17:19:49;0.50;97.70
27567;DHT22;15006;48.584;9.186;2022-12-07T17:22:15;0.50;97.70
27567;DHT22;15006;48.584;9.186;2022-12-07T17:24:40;0.40;97.50
27567;DHT22;15006;48.584;9.186;2022-12-07T17:27:07;0.30;97.30
27567;DHT22;15006;48.584;9.186;2022-12-07T17:29:33;0.30;97.20
27567;DHT22;15006;48.584;9.186;2022-12-07T17:31:59;0.20;97.00
27567;DHT22;15006;48.584;9.186;2022-12-07T17:34:25;0.10;96.80
27567;DHT22;15006;48.584;9.186;2022-12-07T17:36:51;0.00;96.50
27567;DHT22;15006;48.584;9.186;2022-12-07T17:39:18;-0.10;96.40
27567;DHT22;15006;48.584;9.186;2022-12-07T17:41:44;-0.10;96.30
27567;DHT22;15006;48.584;9.186;2022-12-07T17:44:29;-0.20;96.50
27567;DHT22;15006;48.584;9.186;2022-12-07T17:46:56;-0.30;97.00
27567;DHT22;15006;48.584;9.186;2022-12-07T17:49:24;-0.40;97.40
27567;DHT22;15006;48.584;9.186;2022-12-07T17:51:51;-0.50;97.80
27567;DHT22;15006;48.584;9.186;2022-12-07T17:54:36;-0.50;98.30
27567;DHT22;15006;48.584;9.186;2022-12-07T17:57:02;-0.50;98.70
27567;DHT22;15006;48.584;9.186;2022-12-07T17:59:28;-0.60;99.00
27567;DHT22;15006;48.584;9.186;2022-12-07T18:01:54;-0.60;99.30
27567;DHT22;15006;48.584;9.186;2022-12-07T18:04:20;-0.60;99.40
27567;DHT22;15006;48.584;9.186;2022-12-07T18:06:46;-0.60;99.70
27567;DHT22;15006;48.584;9.186;2022-12-07T18:09:12;-0.70;99.90
27567;DHT22;15006;48.584;9.186;2022-12-07T18:11:38;-0.70;99.90
27567;DHT22;15006;48.584;9.186;2022-12-07T18:14:05;-0.70;99.90
27567;DHT22;15006;48.584;9.186;2022-12-07T18:16:32;-0.70;99.90
27567;DHT22;15006;48.584;9.186;2022-12-07T18:19:02;-0.70;99.90